Time;durP1;ratioP1;P1;durP2;ratioP2;P2;SDS_P1;SDS_P2;PMS_P1;PMS_P2;Temp;Humidity;BMP_temperature;BMP_pressure;BME280_temperature;BME280_humidity;BME280_pressure;Samples;Min_cycle;Max_cycle;Signal;HPM_P1;HPM_P2
2022/07/09 00:02:09;;;;;;;;;9.00;8.80;;;;;20.91;58.54;99519.88;5092286;28;8859;-73
2022/07/09 00:04:37;;;;;;;;;8.80;8.80;;;;;20.89;58.27;99519.94;5092102;28;8914;-73
2022/07/09 00:07:07;;;;;;;;;9.20;9.20;;;;;20.75;58.76;99520.53;5090347;28;8839;-74
2022/07/09 00:09:36;;;;;;;;;10.00;9.40;;;;;20.80;58.62;99523.00;5091971;28;8858;-74
2022/07/09 00:12:05;;;;;;;;;10.80;10.80;;;;;20.69;59.09;99523.44;5092065;28;8872;-72
2022/07/09 00:14:34;;;;;;;;;10.00;10.00;;;;;20.56;59.58;99515.13;5092579;28;8916;-72
2022/07/09 00:17:02;;;;;;;;;11.00;10.80;;;;;20.48;59.88;99524.31;5074135;28;8859;-73
2022/07/09 00:19:31;;;;;;;;;10.60;10.60;;;;;20.51;59.82;99521.53;5124846;27;8982;-72
2022/07/09 00:22:00;;;;;;;;;9.60;9.60;;;;;20.50;59.99;99527.78;5092077;28;9613;-73
2022/07/09 00:24:29;;;;;;;;;11.00;10.00;;;;;20.53;59.66;99523.22;5091570;28;8847;-73
2022/07/09 00:26:58;;;;;;;;;8.60;8.60;;;;;20.48;60.08;99529.63;5090254;28;8847;-72
2022/07/09 00:29:27;;;;;;;;;8.80;8.80;;;;;20.39;60.24;99520.25;5056046;28;8831;-74
2022/07/09 00:31:55;;;;;;;;;11.40;10.20;;;;;20.24;60.77;99519.97;5089151;28;8994;-74
2022/07/09 00:34:24;;;;;;;;;9.00;7.60;;;;;20.20;60.78;99520.16;5091425;28;8836;-77
2022/07/09 00:36:53;;;;;;;;;9.20;9.20;;;;;20.06;61.34;99518.91;5089772;28;8932;-76
2022/07/09 00:39:21;;;;;;;;;9.00;9.00;;;;;19.97;61.77;99519.28;5090182;28;8992;-75
2022/07/09 00:41:51;;;;;;;;;12.60;11.40;;;;;19.98;61.71;99526.31;5090050;28;8855;-74
2022/07/09 00:44:19;;;;;;;;;9.00;9.00;;;;;19.95;61.98;99522.94;5091216;28;8835;-75
2022/07/09 00:46:48;;;;;;;;;10.00;10.00;;;;;19.90;62.35;99512.50;5089795;28;8983;-72
2022/07/09 00:49:17;;;;;;;;;9.20;9.20;;;;;19.88;62.45;99517.00;5089720;28;8856;-75
2022/07/09 00:51:46;;;;;;;;;8.00;8.00;;;;;19.83;62.59;99519.84;5091106;28;8843;-71
2022/07/09 00:54:15;;;;;;;;;8.60;8.40;;;;;19.73;63.17;99517.59;5091076;28;8917;-76
2022/07/09 00:56:44;;;;;;;;;7.60;7.40;;;;;19.67;63.21;99526.59;5124652;27;8977;-75
2022/07/09 00:59:15;;;;;;;;;9.20;9.20;;;;;19.65;63.52;99531.09;5090090;28;8839;-73
2022/07/09 01:01:43;;;;;;;;;8.40;8.40;;;;;19.65;63.40;99529.28;5072596;28;8835;-74
2022/07/09 01:04:12;;;;;;;;;9.60;9.60;;;;;19.66;63.60;99530.19;5091040;28;8859;-72
2022/07/09 01:06:41;;;;;;;;;8.20;8.20;;;;;19.63;63.60;99533.78;5089583;28;8920;-72
2022/07/09 01:09:10;;;;;;;;;8.20;8.20;;;;;19.64;64.00;99532.00;5090974;28;8878;-70
2022/07/09 01:11:39;;;;;;;;;8.00;8.00;;;;;19.74;63.17;99529.91;5090667;28;8855;-75
2022/07/09 01:14:07;;;;;;;;;7.60;7.60;;;;;19.71;63.39;99532.63;5088416;28;8855;-71
2022/07/09 01:16:38;;;;;;;;;10.80;8.80;;;;;19.62;63.95;99524.16;5090598;28;8839;-73
2022/07/09 01:19:08;;;;;;;;;9.60;9.00;;;;;19.57;64.03;99536.69;5090691;28;8917;-72
2022/07/09 01:21:38;;;;;;;;;7.00;7.00;;;;;19.61;64.21;99527.69;5090451;28;9603;-72
2022/07/09 01:24:07;;;;;;;;;8.00;8.00;;;;;19.60;64.05;99525.09;5090465;28;8851;-71
2022/07/09 01:26:36;;;;;;;;;6.00;6.00;;;;;19.64;63.96;99527.59;5072224;28;8870;-73
2022/07/09 01:29:05;;;;;;;;;7.80;7.00;;;;;19.68;63.78;99525.69;5090635;28;8852;-76
2022/07/09 01:31:33;;;;;;;;;7.60;7.60;;;;;19.73;63.88;99533.47;5089394;28;8955;-75
2022/07/09 01:34:02;;;;;;;;;7.60;7.20;;;;;19.78;63.61;99531.53;5089462;28;8874;-74
2022/07/09 01:36:30;;;;;;;;;7.60;7.60;;;;;19.65;64.08;99525.81;5071419;28;8847;-70
2022/07/09 01:39:01;;;;;;;;;7.80;7.00;;;;;19.70;63.80;99528.25;5089955;28;8978;-71
2022/07/09 01:41:30;;;;;;;;;7.00;7.00;;;;;19.59;64.21;99529.53;5089961;28;8859;-70
2022/07/09 01:43:59;;;;;;;;;8.20;7.40;;;;;19.53;64.42;99523.59;5090252;28;8874;-71
2022/07/09 01:46:27;;;;;;;;;9.00;9.00;;;;;19.46;64.88;99517.69;5071808;28;8840;-74
2022/07/09 01:48:56;;;;;;;;;9.20;6.40;;;;;19.47;65.01;99522.94;5089773;28;9561;-74
2022/07/09 01:51:25;;;;;;;;;9.00;9.00;;;;;19.52;64.59;99525.41;5071281;28;8870;-74
2022/07/09 01:53:53;;;;;;;;;9.60;9.60;;;;;19.53;64.64;99521.84;5087416;28;8855;-75
2022/07/09 01:56:23;;;;;;;;;8.00;7.00;;;;;19.53;64.83;99516.56;5088341;28;8851;-73
2022/07/09 01:58:51;;;;;;;;;9.40;9.40;;;;;19.49;64.93;99522.88;5089789;28;8839;-76
2022/07/09 02:01:20;;;;;;;;;10.40;10.40;;;;;19.47;65.05;99525.59;5089123;28;8844;-74
2022/07/09 02:03:49;;;;;;;;;10.20;10.20;;;;;19.45;65.04;99531.81;5071435;28;8875;-73
2022/07/09 02:06:18;;;;;;;;;9.60;9.20;;;;;19.43;65.40;99536.31;5088483;28;8854;-74
2022/07/09 02:08:46;;;;;;;;;9.20;9.20;;;;;19.37;65.70;99540.03;5088585;28;8940;-74
2022/07/09 02:11:15;;;;;;;;;12.60;10.20;;;;;19.43;65.45;99545.13;5091623;28;8863;-74
2022/07/09 02:13:45;;;;;;;;;6.40;6.40;;;;;19.48;65.41;99544.94;5091513;28;8900;-74
2022/07/09 02:16:13;;;;;;;;;11.60;11.60;;;;;19.54;65.05;99541.22;5089064;28;8840;-72
2022/07/09 02:18:42;;;;;;;;;6.20;6.20;;;;;19.45;65.37;99553.88;5089398;28;8832;-72
2022/07/09 02:21:11;;;;;;;;;14.00;11.80;;;;;19.40;65.86;99550.53;5122214;27;8835;-74
2022/07/09 02:23:39;;;;;;;;;11.00;10.80;;;;;19.50;65.40;99544.91;5088346;28;8894;-73
2022/07/09 02:26:08;;;;;;;;;8.20;8.20;;;;;19.50;65.27;99543.09;5088341;28;8859;-75
2022/07/09 02:28:37;;;;;;;;;10.20;10.20;;;;;19.59;65.04;99553.34;5088047;28;8847;-75
2022/07/09 02:31:07;;;;;;;;;13.20;12.00;;;;;19.55;65.19;99548.25;5089493;28;9624;-73
2022/07/09 02:33:35;;;;;;;;;12.40;12.00;;;;;19.71;64.74;99553.81;5087967;28;8844;-74
2022/07/09 02:36:05;;;;;;;;;10.40;10.20;;;;;19.62;64.89;99550.59;5071064;28;8955;-72
2022/07/09 02:38:33;;;;;;;;;11.00;10.60;;;;;19.59;64.95;99550.69;5053262;28;8858;-75
2022/07/09 02:41:02;;;;;;;;;8.00;8.00;;;;;19.54;65.00;99547.34;5087903;28;8863;-72
2022/07/09 02:43:32;;;;;;;;;11.00;10.00;;;;;19.62;64.91;99549.72;5121706;27;8843;-73
2022/07/09 02:46:01;;;;;;;;;11.20;11.00;;;;;19.56;65.05;99557.88;5089042;28;8844;-71
2022/07/09 02:48:31;;;;;;;;;10.20;10.00;;;;;19.35;65.09;99554.25;5088021;28;9596;-73
2022/07/09 02:51:01;;;;;;;;;9.40;9.40;;;;;19.59;64.00;99548.06;5089264;28;8827;-71
2022/07/09 02:53:29;;;;;;;;;12.60;12.60;;;;;19.76;62.93;99552.75;5089093;28;8859;-70
2022/07/09 02:55:58;;;;;;;;;8.80;8.80;;;;;19.82;61.86;99547.22;5088964;28;9710;-74
2022/07/09 02:58:27;;;;;;;;;10.40;10.00;;;;;19.76;61.87;99554.53;5086676;28;8847;-72
2022/07/09 03:00:56;;;;;;;;;10.00;10.00;;;;;19.91;60.18;99547.78;5087795;28;8870;-74
2022/07/09 03:03:24;;;;;;;;;7.00;7.00;;;;;20.08;59.76;99544.50;5087571;28;8855;-71
2022/07/09 03:05:54;;;;;;;;;7.00;7.00;;;;;20.27;58.79;99545.47;5087483;28;8916;-70
2022/07/09 03:08:24;;;;;;;;;5.00;5.00;;;;;20.33;57.30;99534.63;5089065;28;8856;-72
2022/07/09 03:10:52;;;;;;;;;6.00;5.60;;;;;20.34;57.05;99541.66;5088679;28;8847;-69
2022/07/09 03:13:21;;;;;;;;;6.00;6.00;;;;;20.46;55.92;99545.56;5090310;28;8836;-72
2022/07/09 03:15:50;;;;;;;;;8.40;7.00;;;;;20.60;55.39;99548.56;5092868;28;8863;-71
2022/07/09 03:18:18;;;;;;;;;5.00;5.00;;;;;20.75;54.94;99559.41;5091662;28;8874;-72
2022/07/09 03:20:48;;;;;;;;;22.80;20.60;;;;;20.77;54.02;99545.16;5092707;28;8931;-71
2022/07/09 03:23:18;;;;;;;;;6.00;4.80;;;;;20.61;53.75;99552.91;5092853;28;8848;-71
2022/07/09 03:25:46;;;;;;;;;4.80;4.80;;;;;20.69;53.71;99552.59;5092327;28;8851;-71
2022/07/09 03:28:15;;;;;;;;;4.80;4.80;;;;;20.86;53.35;99551.88;5073601;28;8828;-71
2022/07/09 03:30:45;;;;;;;;;0.40;0.40;;;;;20.91;52.96;99547.25;5091406;28;8867;-70
2022/07/09 03:33:13;;;;;;;;;5.60;4.40;;;;;20.39;54.78;99555.53;5092520;28;8832;-75
2022/07/09 03:35:43;;;;;;;;;7.60;7.40;;;;;20.11;56.56;99568.19;5073477;28;8889;-70
2022/07/09 03:38:12;;;;;;;;;6.00;6.00;;;;;19.62;58.75;99578.81;5092477;28;8860;-72
2022/07/09 03:40:41;;;;;;;;;6.00;6.00;;;;;19.66;59.37;99567.22;5092609;28;8969;-71
2022/07/09 03:43:10;;;;;;;;;9.00;9.00;;;;;19.71;59.49;99565.25;5092442;28;8846;-73
2022/07/09 03:45:39;;;;;;;;;8.00;8.00;;;;;19.60;60.64;99578.00;5057083;28;8906;-76
2022/07/09 03:48:08;;;;;;;;;8.80;8.20;;;;;19.47;61.55;99574.97;5074310;28;8863;-75
2022/07/09 03:50:37;;;;;;;;;8.20;8.20;;;;;19.26;62.88;99588.06;5091015;28;8873;-73
2022/07/09 03:53:05;;;;;;;;;8.00;8.00;;;;;19.13;63.83;99591.16;5089922;28;8851;-75
2022/07/09 03:55:34;;;;;;;;;9.00;9.00;;;;;18.88;64.49;99578.78;5074265;28;8867;-75
2022/07/09 03:58:04;;;;;;;;;9.00;8.00;;;;;18.78;65.20;99586.16;5091188;28;8855;-73
2022/07/09 04:00:33;;;;;;;;;8.20;7.20;;;;;18.80;65.27;99588.75;5092266;28;8970;-72
2022/07/09 04:03:01;;;;;;;;;9.60;9.00;;;;;18.68;66.62;99590.88;5092117;28;8969;-70
2022/07/09 04:05:30;;;;;;;;;10.20;10.20;;;;;18.67;66.74;99598.84;5091963;28;8832;-71
2022/07/09 04:07:58;;;;;;;;;9.60;8.40;;;;;18.60;66.58;99597.31;5092241;28;8840;-73
2022/07/09 04:10:27;;;;;;;;;8.20;8.20;;;;;18.60;66.22;99590.28;5092211;28;8878;-73
2022/07/09 04:12:56;;;;;;;;;9.20;8.00;;;;;18.77;65.61;99595.00;5091632;28;8836;-72
2022/07/09 04:15:26;;;;;;;;;6.80;6.80;;;;;18.78;65.07;99599.34;5091772;28;8863;-73
2022/07/09 04:17:54;;;;;;;;;11.40;9.60;;;;;19.10;64.16;99592.16;5106361;28;8940;-74
2022/07/09 04:20:25;;;;;;;;;10.60;10.60;;;;;19.35;63.19;99591.28;5072597;28;8839;-73
2022/07/09 04:22:53;;;;;;;;;8.20;8.20;;;;;19.38;62.49;99588.53;5090453;28;8875;-75
2022/07/09 04:25:22;;;;;;;;;16.40;16.40;;;;;19.49;61.93;99591.66;5089929;28;8852;-75
2022/07/09 04:27:51;;;;;;;;;9.00;8.40;;;;;19.34;61.86;99600.13;5091936;28;8851;-75
2022/07/09 04:30:19;;;;;;;;;5.20;5.20;;;;;19.25;62.10;99596.88;5090515;28;8847;-75
2022/07/09 04:32:49;;;;;;;;;7.00;6.20;;;;;19.07;62.59;99602.81;5091658;28;8859;-76
2022/07/09 04:35:18;;;;;;;;;6.40;6.00;;;;;19.04;62.96;99618.78;5091015;28;8859;-73
2022/07/09 04:37:46;;;;;;;;;6.00;6.00;;;;;19.05;63.75;99617.88;5091471;28;8887;-74
2022/07/09 04:40:15;;;;;;;;;7.80;6.00;;;;;19.11;63.54;99615.03;5091440;28;8828;-77
2022/07/09 04:42:44;;;;;;;;;5.80;5.80;;;;;19.00;64.92;99620.69;5073626;28;9679;-75
2022/07/09 04:45:12;;;;;;;;;6.80;6.80;;;;;18.82;66.61;99627.44;5072098;28;8913;-73
2022/07/09 04:47:41;;;;;;;;;7.40;7.40;;;;;18.74;67.77;99631.22;5091225;28;8848;-73
2022/07/09 04:50:11;;;;;;;;;8.40;8.40;;;;;18.56;69.35;99635.31;5038863;28;9620;-73
2022/07/09 04:52:40;;;;;;;;;8.40;6.00;;;;;18.46;70.78;99629.44;5089913;28;8850;-72
2022/07/09 04:55:10;;;;;;;;;9.00;5.60;;;;;18.45;71.44;99633.88;5089582;28;8867;-72
2022/07/09 04:57:39;;;;;;;;;6.60;6.60;;;;;18.33;71.98;99641.31;5073141;28;8863;-75
2022/07/09 05:00:09;;;;;;;;;8.60;7.60;;;;;18.49;71.62;99646.06;5091542;28;8879;-72
2022/07/09 05:02:37;;;;;;;;;6.60;6.20;;;;;18.22;74.22;99653.06;5091425;28;8944;-74
2022/07/09 05:05:07;;;;;;;;;9.60;7.60;;;;;17.96;76.88;99655.59;5089505;28;8905;-72
2022/07/09 05:07:38;;;;;;;;;8.80;7.00;;;;;17.76;79.40;99661.44;5055198;28;8976;-73
2022/07/09 05:10:07;;;;;;;;;7.60;7.60;;;;;17.61;81.25;99657.44;5090235;28;8824;-74
2022/07/09 05:12:36;;;;;;;;;13.60;10.40;;;;;17.51;84.20;99662.97;5090610;28;8929;-70
2022/07/09 05:15:06;;;;;;;;;14.00;11.80;;;;;17.46;84.83;99666.63;5088995;28;8981;-74
2022/07/09 05:17:35;;;;;;;;;11.80;11.80;;;;;17.43;85.46;99664.94;5088141;28;9690;-74
2022/07/09 05:20:05;;;;;;;;;11.00;10.00;;;;;17.27;83.63;99671.53;5089928;28;9581;-75
2022/07/09 05:22:34;;;;;;;;;9.60;9.60;;;;;17.39;84.57;99667.69;5071517;28;8944;-75
2022/07/09 05:25:07;;;;;;;;;12.40;11.60;;;;;17.43;85.41;99664.94;5090343;28;8835;-76
2022/07/09 05:27:42;;;;;;;;;7.80;7.80;;;;;17.40;82.13;99670.28;5021525;28;8930;-74
2022/07/09 05:30:12;;;;;;;;;8.00;7.20;;;;;17.45;80.23;99668.41;5090362;28;8844;-75
2022/07/09 05:32:47;;;;;;;;;7.60;6.60;;;;;17.54;80.20;99673.44;5090176;28;10001;-75
2022/07/09 05:35:17;;;;;;;;;11.00;9.40;;;;;17.53;81.72;99682.25;5090351;28;8852;-73
2022/07/09 05:37:46;;;;;;;;;7.60;6.40;;;;;17.48;82.77;99680.63;5088908;28;8844;-76
2022/07/09 05:40:16;;;;;;;;;7.60;7.60;;;;;17.49;82.96;99680.59;5090030;28;8847;-74
2022/07/09 05:42:45;;;;;;;;;11.60;9.40;;;;;17.35;84.11;99677.44;5090033;28;8843;-76
2022/07/09 05:45:13;;;;;;;;;6.40;6.40;;;;;17.37;82.91;99694.09;5090043;28;9574;-74
2022/07/09 05:47:42;;;;;;;;;7.80;6.20;;;;;17.44;83.08;99698.31;5090455;28;8975;-73
2022/07/09 05:50:11;;;;;;;;;11.40;11.00;;;;;17.53;83.73;99690.16;5089893;28;8838;-74
2022/07/09 05:52:39;;;;;;;;;6.60;6.00;;;;;17.58;82.75;99697.06;5090218;28;8956;-73
2022/07/09 05:55:09;;;;;;;;;8.20;8.20;;;;;17.54;81.96;99694.53;5089790;28;8851;-73
2022/07/09 05:57:39;;;;;;;;;6.00;6.00;;;;;17.52;81.16;99690.19;5087422;28;8840;-74
2022/07/09 06:00:09;;;;;;;;;6.00;5.40;;;;;17.63;80.70;99695.19;5089870;28;8859;-71
2022/07/09 06:02:37;;;;;;;;;7.00;7.00;;;;;17.70;80.66;99694.13;5037952;28;8855;-71
2022/07/09 06:05:07;;;;;;;;;6.20;5.40;;;;;17.65;79.11;99696.84;5088396;28;8862;-74
2022/07/09 06:07:35;;;;;;;;;6.80;6.80;;;;;17.68;80.18;99683.59;5037846;28;8844;-74
2022/07/09 06:10:04;;;;;;;;;6.60;6.60;;;;;17.87;79.75;99686.63;5089422;28;8835;-74
2022/07/09 06:12:34;;;;;;;;;9.20;9.20;;;;;17.88;80.05;99685.72;5070798;28;8860;-73
2022/07/09 06:15:05;;;;;;;;;9.40;9.40;;;;;17.71;80.36;99696.72;5089495;28;8867;-75
2022/07/09 06:17:33;;;;;;;;;8.00;8.00;;;;;17.74;80.68;99701.88;5089165;28;8827;-75
2022/07/09 06:20:02;;;;;;;;;10.20;10.20;;;;;17.77;80.81;99698.31;5089446;28;9577;-74
2022/07/09 06:22:30;;;;;;;;;12.40;10.20;;;;;17.66;81.71;99690.69;5089187;28;8848;-77
2022/07/09 06:24:59;;;;;;;;;10.80;10.80;;;;;17.72;82.07;99684.38;5088925;28;8835;-73
2022/07/09 06:27:27;;;;;;;;;9.60;9.60;;;;;17.75;82.89;99692.22;5089273;28;8844;-73
2022/07/09 06:29:56;;;;;;;;;5.80;5.80;;;;;17.76;80.96;99693.94;5070766;28;8844;-71
2022/07/09 06:32:26;;;;;;;;;14.00;14.00;;;;;17.71;81.31;99694.06;5087002;28;8843;-75
2022/07/09 06:34:54;;;;;;;;;8.00;7.60;;;;;17.65;81.30;99698.63;5036984;28;8851;-73
2022/07/09 06:37:23;;;;;;;;;9.00;7.80;;;;;17.60;81.66;99693.50;5070033;28;8966;-75
2022/07/09 06:39:55;;;;;;;;;8.40;8.40;;;;;17.77;81.69;99690.41;5121714;27;8855;-74
2022/07/09 06:42:24;;;;;;;;;8.20;8.20;;;;;17.79;81.51;99707.06;5070847;28;8893;-74
2022/07/09 06:45:00;;;;;;;;;7.40;7.40;;;;;17.92;79.78;99702.34;5088105;28;8880;-72
2022/07/09 06:47:30;;;;;;;;;6.00;6.00;;;;;17.79;78.88;99701.78;5088742;28;8827;-73
2022/07/09 06:49:59;;;;;;;;;7.60;6.00;;;;;17.93;77.69;99697.00;5088745;28;8847;-73
2022/07/09 06:52:27;;;;;;;;;8.20;6.60;;;;;17.77;78.32;99694.78;5089326;28;8847;-73
2022/07/09 06:54:56;;;;;;;;;10.40;10.40;;;;;17.85;78.91;99691.09;5088931;28;8836;-73
2022/07/09 06:57:25;;;;;;;;;11.20;11.20;;;;;17.74;79.88;99695.75;5088646;28;8852;-75
2022/07/09 06:59:53;;;;;;;;;9.00;8.20;;;;;17.69;80.34;99700.28;5087544;28;8835;-74
2022/07/09 07:02:22;;;;;;;;;10.40;10.40;;;;;17.77;80.31;99698.31;5071022;28;8831;-71
2022/07/09 07:04:52;;;;;;;;;10.80;8.40;;;;;17.85;80.00;99692.88;5088650;28;8914;-70
2022/07/09 07:07:20;;;;;;;;;10.20;9.60;;;;;17.91;79.87;99697.97;5054794;28;8843;-73
2022/07/09 07:09:49;;;;;;;;;12.00;10.20;;;;;18.03;80.04;99692.31;5090606;28;8855;-71
2022/07/09 07:12:18;;;;;;;;;13.20;13.20;;;;;18.14;79.37;99699.94;5089244;28;8848;-74
2022/07/09 07:14:47;;;;;;;;;15.20;13.60;;;;;18.17;79.30;99686.66;5070442;28;8836;-73
2022/07/09 07:17:15;;;;;;;;;12.00;12.00;;;;;18.18;79.58;99688.38;5089148;28;8847;-75
2022/07/09 07:19:44;;;;;;;;;14.00;14.00;;;;;18.10;79.10;99682.47;5089182;28;8855;-74
2022/07/09 07:22:14;;;;;;;;;14.00;14.00;;;;;18.15;79.34;99690.22;5086511;28;8865;-74
2022/07/09 07:24:43;;;;;;;;;12.00;12.00;;;;;18.26;79.43;99693.41;5069506;28;9574;-73
2022/07/09 07:27:11;;;;;;;;;17.40;14.80;;;;;18.24;79.58;99695.25;5087337;28;8839;-73
2022/07/09 07:29:40;;;;;;;;;11.80;11.80;;;;;18.26;79.88;99701.34;5121444;28;8890;-75
2022/07/09 07:32:10;;;;;;;;;13.80;11.40;;;;;18.24;79.35;99696.13;5088545;28;8916;-72
2022/07/09 07:34:38;;;;;;;;;13.80;13.00;;;;;18.31;78.95;99704.72;5036415;28;8859;-76
2022/07/09 07:37:07;;;;;;;;;10.20;10.20;;;;;18.21;77.73;99700.63;5088512;28;8854;-74
2022/07/09 07:39:37;;;;;;;;;10.40;10.40;;;;;18.18;76.63;99704.19;5085868;28;8924;-76
2022/07/09 07:42:07;;;;;;;;;12.00;10.80;;;;;18.19;76.10;99708.59;5036146;28;8977;-75
2022/07/09 07:44:35;;;;;;;;;13.60;11.60;;;;;18.33;75.70;99704.69;5088287;28;8835;-76
2022/07/09 07:47:04;;;;;;;;;12.40;12.40;;;;;18.48;74.69;99694.50;5087099;28;8876;-71
2022/07/09 07:49:33;;;;;;;;;12.20;11.00;;;;;18.63;73.06;99700.25;5088289;28;9010;-76
2022/07/09 07:52:01;;;;;;;;;9.40;9.40;;;;;18.92;72.21;99698.47;5088039;28;8870;-73
2022/07/09 07:54:30;;;;;;;;;12.00;11.00;;;;;18.95;72.02;99704.53;5088044;28;8835;-74
2022/07/09 07:57:00;;;;;;;;;14.00;11.20;;;;;18.97;71.18;99704.47;5088147;28;8855;-71
2022/07/09 07:59:28;;;;;;;;;13.60;12.80;;;;;19.04;70.10;99703.38;5088017;28;8844;-76
2022/07/09 08:01:57;;;;;;;;;11.60;11.60;;;;;18.97;69.81;99710.63;5091440;28;8836;-75
2022/07/09 08:04:26;;;;;;;;;10.80;10.80;;;;;18.81;70.41;99701.44;5073776;28;8863;-74
2022/07/09 08:06:54;;;;;;;;;10.60;10.60;;;;;19.04;70.59;99706.88;5089958;28;8867;-71
2022/07/09 08:09:23;;;;;;;;;13.20;12.80;;;;;19.38;70.18;99705.75;5091272;28;8824;-75
2022/07/09 08:11:52;;;;;;;;;10.20;10.20;;;;;19.33;69.40;99704.19;5056385;28;8843;-73
2022/07/09 08:14:22;;;;;;;;;12.00;11.60;;;;;19.13;69.31;99703.06;5091582;28;8832;-75
2022/07/09 08:16:51;;;;;;;;;12.00;11.20;;;;;19.42;68.86;99703.88;5091091;28;8867;-72
2022/07/09 08:19:19;;;;;;;;;14.60;13.60;;;;;19.72;68.13;99699.31;5091150;28;8869;-76
2022/07/09 08:21:48;;;;;;;;;13.40;12.60;;;;;19.88;67.35;99698.75;5091762;28;8866;-72
2022/07/09 08:24:16;;;;;;;;;13.00;12.80;;;;;20.05;67.31;99701.66;5073108;28;8832;-72
2022/07/09 08:26:45;;;;;;;;;17.60;15.00;;;;;19.82;67.34;99711.28;5072536;28;8917;-74
2022/07/09 08:29:13;;;;;;;;;12.80;12.00;;;;;19.81;68.38;99706.94;5073030;28;9744;-73
2022/07/09 08:31:44;;;;;;;;;13.00;12.00;;;;;19.98;67.77;99701.03;5091233;28;8851;-73
2022/07/09 08:34:12;;;;;;;;;15.40;14.40;;;;;19.95;67.96;99710.84;5089378;28;8848;-75
2022/07/09 08:36:41;;;;;;;;;12.60;12.20;;;;;20.02;67.83;99702.63;5089452;28;8840;-73
2022/07/09 08:39:09;;;;;;;;;12.80;11.20;;;;;20.04;67.52;99700.78;5090885;28;8828;-70
2022/07/09 08:41:38;;;;;;;;;11.80;11.80;;;;;19.70;68.41;99703.78;5072871;28;8855;-73
2022/07/09 08:44:11;;;;;;;;;13.60;12.40;;;;;19.83;68.35;99704.22;5088672;28;8954;-72
2022/07/09 08:46:40;;;;;;;;;15.80;15.20;;;;;20.03;67.79;99700.84;5089765;28;8836;-74
2022/07/09 08:49:14;;;;;;;;;12.00;12.00;;;;;19.98;67.23;99708.97;5090888;28;8860;-72
2022/07/09 08:51:44;;;;;;;;;13.60;12.60;;;;;19.94;67.81;99698.53;5072168;28;8863;-75
2022/07/09 08:54:14;;;;;;;;;10.80;10.00;;;;;20.06;67.77;99690.16;5089305;28;8848;-70
2022/07/09 08:56:43;;;;;;;;;12.40;11.40;;;;;20.00;67.55;99693.00;5072286;28;9737;-76
2022/07/09 08:59:12;;;;;;;;;10.80;10.80;;;;;20.22;67.09;99690.44;5090685;28;8978;-75
2022/07/09 09:01:40;;;;;;;;;11.40;11.40;;;;;20.62;65.60;99683.59;5090244;28;8835;-74
2022/07/09 09:04:10;;;;;;;;;11.20;11.20;;;;;20.47;65.96;99674.44;5089032;28;8847;-72
2022/07/09 09:06:41;;;;;;;;;16.20;13.20;;;;;20.44;65.92;99687.81;5089468;28;8839;-74
2022/07/09 09:09:19;;;;;;;;;10.80;10.40;;;;;20.66;64.73;99679.91;5089273;28;8874;-73
2022/07/09 09:11:50;;;;;;;;;12.80;12.60;;;;;20.57;65.61;99677.63;5089002;28;8835;-72
2022/07/09 09:14:21;;;;;;;;;14.00;14.00;;;;;21.02;63.87;99674.91;5090198;28;8856;-73
2022/07/09 09:16:51;;;;;;;;;11.40;11.20;;;;;21.53;62.37;99678.09;5090269;28;9601;-76
2022/07/09 09:19:23;;;;;;;;;11.60;11.60;;;;;21.60;61.19;99668.06;5090162;28;8882;-74
2022/07/09 09:21:54;;;;;;;;;14.60;14.00;;;;;21.15;62.99;99682.34;5090231;28;9558;-74
2022/07/09 09:24:28;;;;;;;;;10.00;10.00;;;;;20.96;63.51;99677.84;5090264;28;8860;-71
2022/07/09 09:26:59;;;;;;;;;11.80;11.80;;;;;21.10;63.54;99673.75;5089640;27;8859;-75
2022/07/09 09:29:28;;;;;;;;;14.20;14.00;;;;;20.96;63.65;99674.28;5090880;28;8911;-75
2022/07/09 09:31:57;;;;;;;;;13.40;12.40;;;;;20.84;63.68;99671.22;5089368;28;9712;-73
2022/07/09 09:34:27;;;;;;;;;13.00;12.00;;;;;21.10;62.98;99671.94;5088757;28;8936;-77
2022/07/09 09:36:56;;;;;;;;;15.80;14.40;;;;;20.97;63.44;99674.25;5088715;28;8902;-77
2022/07/09 09:39:26;;;;;;;;;10.80;10.80;;;;;20.80;63.71;99676.72;5071585;28;8874;-72
2022/07/09 09:41:56;;;;;;;;;11.60;11.60;;;;;20.76;63.93;99670.69;5088538;28;8869;-74
2022/07/09 09:44:29;;;;;;;;;11.00;10.80;;;;;21.06;62.72;99680.06;5087343;28;8853;-74
2022/07/09 09:46:59;;;;;;;;;11.20;10.20;;;;;21.10;62.90;99668.44;5066692;28;9605;-71
2022/07/09 09:49:29;;;;;;;;;12.00;11.60;;;;;21.26;62.51;99669.50;5066658;28;8978;-75
2022/07/09 09:52:05;;;;;;;;;15.00;14.20;;;;;21.33;62.71;99664.81;5066589;28;8848;-72
2022/07/09 09:54:34;;;;;;;;;13.00;13.00;;;;;21.91;61.20;99654.28;5066371;28;8855;-72
2022/07/09 09:57:07;;;;;;;;;10.20;10.00;;;;;22.40;59.49;99648.53;5050150;28;8852;-72
2022/07/09 09:59:38;;;;;;;;;12.80;12.60;;;;;22.58;58.09;99650.28;5066656;28;8844;-72
2022/07/09 10:02:09;;;;;;;;;13.40;12.20;;;;;22.12;58.02;99643.63;5050757;28;8840;-75
2022/07/09 10:04:40;;;;;;;;;12.40;12.40;;;;;22.10;58.69;99649.00;5066530;28;8936;-73
2022/07/09 10:07:11;;;;;;;;;9.80;9.80;;;;;22.53;56.60;99646.13;5066467;28;8859;-73
2022/07/09 10:09:40;;;;;;;;;11.20;9.60;;;;;22.33;57.16;99637.31;5066372;28;8856;-75
2022/07/09 10:12:10;;;;;;;;;9.80;9.80;;;;;22.17;57.24;99642.47;5066346;28;8852;-78
2022/07/09 10:14:39;;;;;;;;;9.00;9.00;;;;;21.86;56.92;99645.66;5068441;28;9102;-72
2022/07/09 10:17:13;;;;;;;;;10.80;9.40;;;;;21.84;57.58;99646.69;5086727;28;8878;-75
2022/07/09 10:19:54;;;;;;;;;12.00;12.00;;;;;22.10;56.42;99641.03;5089161;28;8881;-76
2022/07/09 10:22:23;;;;;;;;;9.20;8.00;;;;;21.84;55.05;99646.69;5088524;28;8986;-75
2022/07/09 10:24:53;;;;;;;;;10.40;8.20;;;;;21.89;56.07;99636.69;5087039;28;9558;-77
2022/07/09 10:27:22;;;;;;;;;9.00;9.00;;;;;22.35;55.64;99626.63;5071149;28;8871;-78
2022/07/09 10:29:56;;;;;;;;;10.20;10.20;;;;;22.50;53.89;99622.38;5071373;28;8832;-77
2022/07/09 10:32:28;;;;;;;;;9.60;9.60;;;;;22.20;53.46;99642.31;5071129;28;8852;-71
2022/07/09 10:35:00;;;;;;;;;11.80;9.00;;;;;22.29;52.95;99626.94;5069789;28;8861;-75
2022/07/09 10:37:37;;;;;;;;;10.00;9.80;;;;;22.46;52.70;99621.66;5045719;28;8843;-76
2022/07/09 10:40:10;;;;;;;;;9.60;9.60;;;;;22.84;52.03;99620.72;5045915;28;8919;-77
2022/07/09 10:42:39;;;;;;;;;8.60;7.60;;;;;23.01;51.44;99620.72;5029222;28;8959;-74
2022/07/09 10:45:22;;;;;;;;;10.80;10.80;;;;;22.95;51.22;99615.72;5045776;28;8854;-72
2022/07/09 10:47:54;;;;;;;;;8.80;8.80;;;;;23.15;51.21;99618.22;5045990;28;8854;-74
2022/07/09 10:50:24;;;;;;;;;9.60;9.60;;;;;23.39;50.54;99611.72;5045636;28;8854;-76
2022/07/09 10:52:53;;;;;;;;;9.80;9.60;;;;;23.79;50.04;99614.97;5045851;28;8853;-74
2022/07/09 10:55:23;;;;;;;;;10.20;10.20;;;;;23.32;50.94;99617.34;5029054;28;8884;-75
2022/07/09 10:57:53;;;;;;;;;9.80;9.80;;;;;22.87;51.38;99615.22;5045050;28;8846;-71
2022/07/09 11:00:23;;;;;;;;;11.00;11.00;;;;;22.75;51.14;99616.69;5045852;28;8872;-75
2022/07/09 11:02:55;;;;;;;;;8.80;8.80;;;;;22.57;52.70;99611.38;4996353;28;8897;-76
2022/07/09 11:05:27;;;;;;;;;9.60;9.60;;;;;22.83;52.55;99611.84;5029469;28;9697;-74
2022/07/09 11:08:01;;;;;;;;;2.00;2.00;;;;;23.29;51.16;99614.88;5053737;28;8882;-74
2022/07/09 11:10:30;;;;;;;;;10.60;10.60;;;;;23.11;51.53;99611.34;5088608;28;8847;-72
2022/07/09 11:13:00;;;;;;;;;9.20;8.60;;;;;22.84;52.23;99610.94;5088743;28;8979;-73
2022/07/09 11:15:33;;;;;;;;;10.80;10.80;;;;;22.82;52.57;99603.97;5088756;28;8955;-74
2022/07/09 11:18:04;;;;;;;;;11.20;9.80;;;;;22.94;52.14;99604.19;5070637;28;8847;-74
2022/07/09 11:20:39;;;;;;;;;11.20;11.20;;;;;23.51;49.64;99601.28;5088578;28;8868;-77
2022/07/09 11:23:10;;;;;;;;;12.60;12.40;;;;;23.68;49.64;99587.06;5087799;28;8831;-77
2022/07/09 11:25:38;;;;;;;;;10.80;10.80;;;;;23.77;49.27;99584.88;5068958;28;8857;-70
2022/07/09 11:28:07;;;;;;;;;10.60;9.60;;;;;23.38;49.16;99594.03;5086061;28;8834;-76
2022/07/09 11:30:42;;;;;;;;;8.60;8.60;;;;;23.20;50.65;99588.75;5068929;28;8868;-75
2022/07/09 11:33:13;;;;;;;;;10.40;10.20;;;;;23.05;50.42;99586.88;5068910;28;8880;-72
2022/07/09 11:35:45;;;;;;;;;12.20;12.20;;;;;23.35;50.05;99579.94;5089218;28;8834;-75
2022/07/09 11:38:14;;;;;;;;;10.00;10.00;;;;;23.80;49.24;99580.28;5089825;28;8946;-75
2022/07/09 11:40:42;;;;;;;;;8.80;8.80;;;;;24.04;47.76;99577.19;5072652;28;9646;-75
2022/07/09 11:43:14;;;;;;;;;11.00;9.80;;;;;24.28;47.96;99570.47;5089903;28;8849;-73
2022/07/09 11:45:53;;;;;;;;;7.00;7.00;;;;;24.04;47.01;99567.38;5072725;28;8841;-76